aviador You're here:

KIPJ Decoded Metar

LINCOLNTON in NC, USA
Report Time2018-06-24 23:00:00
UTC Time2018-06-24 22:48:56
Flight Rules vfr VFR
Wind230° at 06 kt
W.Decomp.*RWY 23: 6.0 kt HW 0.6 kt RCW
W.Rank230° ranks 1
Current wind is below 230° avg. (6.3)
Visibility9999 m
Phenomena:N/A
Clouds:Scattered 090 Hf
Expected CloudBase > 4,400 ft AGL from Temp-Dew spread
CeilingNone
Temp31°C (ISA +18)
Dew Point20°C (52% RH)
Heat Index33.0°C
QNH1014 hPa
Density Alt3,179 ft
Elevation876 ft
Report Wrong Elevation
Raw Report
METAR KIPJ 242300Z AUTO 23006KT 10SM SCT090 31/20 A2995 RMK AO2 T03070202=

Extra information for KIPJ:More info

Metar Taf Metar & Taf Last 4 Metars F.Rules Stats Wind Profile Meteogram Temp Stats Airport Information Weather charts Add Link Nearby VenuesMetar ALERT Operation Metar Decoded Social comments

AIRNAV info for KIPJ